sensor_id;sensor_type;location;lat;lon;timestamp;temperature;humidity
48043;DHT22;33988;47.992;8.820;2023-04-24T00:00:34;18.80;46.60
48043;DHT22;33988;47.992;8.820;2023-04-24T00:03:09;18.70;46.60
48043;DHT22;33988;47.992;8.820;2023-04-24T00:05:36;18.70;46.50
48043;DHT22;33988;47.992;8.820;2023-04-24T00:08:03;18.70;46.50
48043;DHT22;33988;47.992;8.820;2023-04-24T00:10:30;18.70;46.50
48043;DHT22;33988;47.992;8.820;2023-04-24T00:12:59;18.70;46.50
48043;DHT22;33988;47.992;8.820;2023-04-24T00:15:26;18.60;46.50
48043;DHT22;33988;47.992;8.820;2023-04-24T00:17:53;18.60;46.50
48043;DHT22;33988;47.992;8.820;2023-04-24T00:20:23;18.60;46.60
48043;DHT22;33988;47.992;8.820;2023-04-24T00:22:50;18.60;46.60
48043;DHT22;33988;47.992;8.820;2023-04-24T00:25:18;18.60;46.60
48043;DHT22;33988;47.992;8.820;2023-04-24T00:27:45;18.60;46.60
48043;DHT22;33988;47.992;8.820;2023-04-24T00:30:12;18.50;46.60
48043;DHT22;33988;47.992;8.820;2023-04-24T00:32:39;18.50;46.60
48043;DHT22;33988;47.992;8.820;2023-04-24T00:35:07;18.50;46.60
48043;DHT22;33988;47.992;8.820;2023-04-24T00:37:34;18.40;46.60
48043;DHT22;33988;47.992;8.820;2023-04-24T00:40:04;18.40;46.70
48043;DHT22;33988;47.992;8.820;2023-04-24T00:42:33;18.40;46.80
48043;DHT22;33988;47.992;8.820;2023-04-24T00:45:02;18.40;46.80
48043;DHT22;33988;47.992;8.820;2023-04-24T00:47:30;18.40;46.90
48043;DHT22;33988;47.992;8.820;2023-04-24T00:49:57;18.40;46.90
48043;DHT22;33988;47.992;8.820;2023-04-24T00:52:23;18.40;47.00
48043;DHT22;33988;47.992;8.820;2023-04-24T00:54:50;18.40;47.00
48043;DHT22;33988;47.992;8.820;2023-04-24T00:57:20;18.40;47.00
48043;DHT22;33988;47.992;8.820;2023-04-24T00:59:48;18.40;47.10
48043;DHT22;33988;47.992;8.820;2023-04-24T01:02:17;18.40;47.10
48043;DHT22;33988;47.992;8.820;2023-04-24T01:04:44;18.40;47.10
48043;DHT22;33988;47.992;8.820;2023-04-24T01:07:11;18.40;47.10
48043;DHT22;33988;47.992;8.820;2023-04-24T01:09:40;18.40;47.10
48043;DHT22;33988;47.992;8.820;2023-04-24T01:12:09;18.40;47.20
48043;DHT22;33988;47.992;8.820;2023-04-24T01:14:36;18.40;47.20
48043;DHT22;33988;47.992;8.820;2023-04-24T01:17:04;18.40;47.10
48043;DHT22;33988;47.992;8.820;2023-04-24T01:19:31;18.40;47.20
48043;DHT22;33988;47.992;8.820;2023-04-24T01:22:11;18.40;47.20
48043;DHT22;33988;47.992;8.820;2023-04-24T01:24:41;18.40;47.40
48043;DHT22;33988;47.992;8.820;2023-04-24T01:27:09;18.40;47.50
48043;DHT22;33988;47.992;8.820;2023-04-24T01:29:37;18.40;47.60
48043;DHT22;33988;47.992;8.820;2023-04-24T01:32:05;18.40;47.70
48043;DHT22;33988;47.992;8.820;2023-04-24T01:34:33;18.40;47.90
48043;DHT22;33988;47.992;8.820;2023-04-24T01:37:03;18.30;48.00
48043;DHT22;33988;47.992;8.820;2023-04-24T01:39:31;18.30;48.10
48043;DHT22;33988;47.992;8.820;2023-04-24T01:42:01;18.30;48.20
48043;DHT22;33988;47.992;8.820;2023-04-24T01:44:29;18.30;48.30
48043;DHT22;33988;47.992;8.820;2023-04-24T01:46:56;18.20;48.30
48043;DHT22;33988;47.992;8.820;2023-04-24T01:49:26;18.20;48.40
48043;DHT22;33988;47.992;8.820;2023-04-24T01:51:53;18.20;48.50
48043;DHT22;33988;47.992;8.820;2023-04-24T01:54:20;18.20;48.60
48043;DHT22;33988;47.992;8.820;2023-04-24T01:56:47;18.20;48.70
48043;DHT22;33988;47.992;8.820;2023-04-24T01:59:15;18.10;48.80
48043;DHT22;33988;47.992;8.820;2023-04-24T02:01:42;18.10;49.00
48043;DHT22;33988;47.992;8.820;2023-04-24T02:04:14;18.10;49.10
48043;DHT22;33988;47.992;8.820;2023-04-24T02:06:42;18.10;49.30
48043;DHT22;33988;47.992;8.820;2023-04-24T02:09:10;18.00;49.30
48043;DHT22;33988;47.992;8.820;2023-04-24T02:11:42;18.00;49.50
48043;DHT22;33988;47.992;8.820;2023-04-24T02:14:11;18.00;49.50
48043;DHT22;33988;47.992;8.820;2023-04-24T02:16:41;18.00;49.60
48043;DHT22;33988;47.992;8.820;2023-04-24T02:19:08;18.00;49.70
48043;DHT22;33988;47.992;8.820;2023-04-24T02:21:35;17.90;49.80
48043;DHT22;33988;47.992;8.820;2023-04-24T02:24:04;17.90;49.80
48043;DHT22;33988;47.992;8.820;2023-04-24T02:26:31;17.90;49.90
48043;DHT22;33988;47.992;8.820;2023-04-24T02:28:58;17.80;49.90
48043;DHT22;33988;47.992;8.820;2023-04-24T02:31:27;17.80;50.00
48043;DHT22;33988;47.992;8.820;2023-04-24T02:33:54;17.80;50.10
48043;DHT22;33988;47.992;8.820;2023-04-24T02:36:21;17.80;50.20
48043;DHT22;33988;47.992;8.820;2023-04-24T02:38:48;17.80;50.20
48043;DHT22;33988;47.992;8.820;2023-04-24T02:41:19;17.80;50.40
48043;DHT22;33988;47.992;8.820;2023-04-24T02:43:51;17.80;50.40
48043;DHT22;33988;47.992;8.820;2023-04-24T02:46:18;17.70;50.40
48043;DHT22;33988;47.992;8.820;2023-04-24T02:48:47;17.70;50.40
48043;DHT22;33988;47.992;8.820;2023-04-24T02:51:14;17.70;50.40
48043;DHT22;33988;47.992;8.820;2023-04-24T02:53:43;17.70;50.40
48043;DHT22;33988;47.992;8.820;2023-04-24T02:56:12;17.70;50.50
48043;DHT22;33988;47.992;8.820;2023-04-24T02:58:39;17.70;50.60
48043;DHT22;33988;47.992;8.820;2023-04-24T03:01:06;17.70;50.60
48043;DHT22;33988;47.992;8.820;2023-04-24T03:03:33;17.60;50.70
48043;DHT22;33988;47.992;8.820;2023-04-24T03:06:02;17.60;50.80
48043;DHT22;33988;47.992;8.820;2023-04-24T03:08:32;17.60;50.90
48043;DHT22;33988;47.992;8.820;2023-04-24T03:10:59;17.60;50.90
48043;DHT22;33988;47.992;8.820;2023-04-24T03:13:31;17.50;50.80
48043;DHT22;33988;47.992;8.820;2023-04-24T03:15:57;17.50;50.90
48043;DHT22;33988;47.992;8.820;2023-04-24T03:18:27;17.50;50.90
48043;DHT22;33988;47.992;8.820;2023-04-24T03:20:54;17.50;51.00
48043;DHT22;33988;47.992;8.820;2023-04-24T03:23:21;17.50;51.00
48043;DHT22;33988;47.992;8.820;2023-04-24T03:25:50;17.50;51.10
48043;DHT22;33988;47.992;8.820;2023-04-24T03:28:17;17.50;51.20
48043;DHT22;33988;47.992;8.820;2023-04-24T03:30:44;17.50;51.20
48043;DHT22;33988;47.992;8.820;2023-04-24T03:33:11;17.50;51.30
48043;DHT22;33988;47.992;8.820;2023-04-24T03:35:38;17.50;51.30
48043;DHT22;33988;47.992;8.820;2023-04-24T03:38:07;17.50;51.40
48043;DHT22;33988;47.992;8.820;2023-04-24T03:40:35;17.50;51.40
48043;DHT22;33988;47.992;8.820;2023-04-24T03:43:02;17.50;51.50
48043;DHT22;33988;47.992;8.820;2023-04-24T03:45:31;17.50;51.50
48043;DHT22;33988;47.992;8.820;2023-04-24T03:47:58;17.40;51.60
48043;DHT22;33988;47.992;8.820;2023-04-24T03:50:25;17.40;51.70
48043;DHT22;33988;47.992;8.820;2023-04-24T03:52:55;17.40;51.70
48043;DHT22;33988;47.992;8.820;2023-04-24T03:55:22;17.40;51.80
48043;DHT22;33988;47.992;8.820;2023-04-24T03:57:51;17.40;51.80
48043;DHT22;33988;47.992;8.820;2023-04-24T04:00:21;17.40;51.80
48043;DHT22;33988;47.992;8.820;2023-04-24T04:02:48;17.30;51.70
48043;DHT22;33988;47.992;8.820;2023-04-24T04:05:15;17.30;51.80
48043;DHT22;33988;47.992;8.820;2023-04-24T04:07:45;17.30;51.80
48043;DHT22;33988;47.992;8.820;2023-04-24T04:10:12;17.30;51.90
48043;DHT22;33988;47.992;8.820;2023-04-24T04:12:38;17.30;51.90
48043;DHT22;33988;47.992;8.820;2023-04-24T04:15:06;17.30;51.90
48043;DHT22;33988;47.992;8.820;2023-04-24T04:17:33;17.30;51.80
48043;DHT22;33988;47.992;8.820;2023-04-24T04:20:00;17.30;51.90
48043;DHT22;33988;47.992;8.820;2023-04-24T04:22:28;17.20;51.90
48043;DHT22;33988;47.992;8.820;2023-04-24T04:24:54;17.20;51.90
48043;DHT22;33988;47.992;8.820;2023-04-24T04:27:24;17.20;51.90
48043;DHT22;33988;47.992;8.820;2023-04-24T04:29:51;17.20;52.00
48043;DHT22;33988;47.992;8.820;2023-04-24T04:32:19;17.20;51.90
48043;DHT22;33988;47.992;8.820;2023-04-24T04:34:45;17.10;51.90
48043;DHT22;33988;47.992;8.820;2023-04-24T04:37:15;17.10;51.80
48043;DHT22;33988;47.992;8.820;2023-04-24T04:39:42;17.10;51.80
48043;DHT22;33988;47.992;8.820;2023-04-24T04:42:10;17.10;51.80
48043;DHT22;33988;47.992;8.820;2023-04-24T04:44:37;17.10;51.90
48043;DHT22;33988;47.992;8.820;2023-04-24T04:47:05;17.10;51.90
48043;DHT22;33988;47.992;8.820;2023-04-24T04:49:32;17.10;52.00
48043;DHT22;33988;47.992;8.820;2023-04-24T04:51:59;17.00;51.90
48043;DHT22;33988;47.992;8.820;2023-04-24T04:54:26;17.00;52.00
48043;DHT22;33988;47.992;8.820;2023-04-24T04:56:53;17.00;52.10
48043;DHT22;33988;47.992;8.820;2023-04-24T04:59:23;17.00;52.00
48043;DHT22;33988;47.992;8.820;2023-04-24T05:01:50;16.90;52.10
48043;DHT22;33988;47.992;8.820;2023-04-24T05:04:17;16.90;52.20
48043;DHT22;33988;47.992;8.820;2023-04-24T05:06:45;16.90;52.20
48043;DHT22;33988;47.992;8.820;2023-04-24T05:09:14;16.90;52.30
48043;DHT22;33988;47.992;8.820;2023-04-24T05:11:41;16.90;52.40
48043;DHT22;33988;47.992;8.820;2023-04-24T05:14:11;16.90;52.40
48043;DHT22;33988;47.992;8.820;2023-04-24T05:16:39;16.90;52.40
48043;DHT22;33988;47.992;8.820;2023-04-24T05:19:07;16.90;52.40
48043;DHT22;33988;47.992;8.820;2023-04-24T05:21:33;16.90;52.50
48043;DHT22;33988;47.992;8.820;2023-04-24T05:24:00;16.90;52.50
48043;DHT22;33988;47.992;8.820;2023-04-24T05:26:27;16.90;52.50
48043;DHT22;33988;47.992;8.820;2023-04-24T05:28:57;16.90;53.20
48043;DHT22;33988;47.992;8.820;2023-04-24T05:31:23;16.90;52.60
48043;DHT22;33988;47.992;8.820;2023-04-24T05:33:53;16.90;52.70
48043;DHT22;33988;47.992;8.820;2023-04-24T05:36:20;16.90;52.70
48043;DHT22;33988;47.992;8.820;2023-04-24T05:38:49;16.90;52.80
48043;DHT22;33988;47.992;8.820;2023-04-24T05:41:18;16.90;52.80
48043;DHT22;33988;47.992;8.820;2023-04-24T05:43:46;16.90;52.80
48043;DHT22;33988;47.992;8.820;2023-04-24T05:46:15;16.90;52.80
48043;DHT22;33988;47.992;8.820;2023-04-24T05:48:44;16.90;52.80
48043;DHT22;33988;47.992;8.820;2023-04-24T05:51:11;16.90;52.80
48043;DHT22;33988;47.992;8.820;2023-04-24T05:53:43;16.90;52.80
48043;DHT22;33988;47.992;8.820;2023-04-24T05:56:09;17.00;52.90
48043;DHT22;33988;47.992;8.820;2023-04-24T05:58:36;17.00;52.90
48043;DHT22;33988;47.992;8.820;2023-04-24T06:01:04;17.10;53.00
48043;DHT22;33988;47.992;8.820;2023-04-24T06:03:33;17.00;52.90
48043;DHT22;33988;47.992;8.820;2023-04-24T06:06:03;17.10;53.00
48043;DHT22;33988;47.992;8.820;2023-04-24T06:08:30;17.10;53.00
48043;DHT22;33988;47.992;8.820;2023-04-24T06:11:03;17.10;53.00
48043;DHT22;33988;47.992;8.820;2023-04-24T06:13:30;17.20;53.30
48043;DHT22;33988;47.992;8.820;2023-04-24T06:15:59;17.30;53.40
48043;DHT22;33988;47.992;8.820;2023-04-24T06:18:26;17.40;53.60
48043;DHT22;33988;47.992;8.820;2023-04-24T06:20:53;17.60;54.00
48043;DHT22;33988;47.992;8.820;2023-04-24T06:23:21;17.80;54.40
48043;DHT22;33988;47.992;8.820;2023-04-24T06:25:48;18.00;55.00
48043;DHT22;33988;47.992;8.820;2023-04-24T06:28:17;18.40;55.50
48043;DHT22;33988;47.992;8.820;2023-04-24T06:30:45;18.80;55.50
48043;DHT22;33988;47.992;8.820;2023-04-24T06:33:11;19.30;55.30
48043;DHT22;33988;47.992;8.820;2023-04-24T06:35:47;19.80;54.70
48043;DHT22;33988;47.992;8.820;2023-04-24T06:38:17;20.40;54.10
48043;DHT22;33988;47.992;8.820;2023-04-24T06:40:48;20.90;53.40
48043;DHT22;33988;47.992;8.820;2023-04-24T06:43:15;21.50;52.80
48043;DHT22;33988;47.992;8.820;2023-04-24T06:45:42;22.10;52.10
48043;DHT22;33988;47.992;8.820;2023-04-24T06:48:13;22.70;51.30
48043;DHT22;33988;47.992;8.820;2023-04-24T06:50:40;23.30;50.00
48043;DHT22;33988;47.992;8.820;2023-04-24T06:53:07;23.80;48.40
48043;DHT22;33988;47.992;8.820;2023-04-24T06:55:35;24.30;47.10
48043;DHT22;33988;47.992;8.820;2023-04-24T06:58:05;24.60;45.80
48043;DHT22;33988;47.992;8.820;2023-04-24T07:00:32;24.90;44.80
48043;DHT22;33988;47.992;8.820;2023-04-24T07:02:59;25.10;43.60
48043;DHT22;33988;47.992;8.820;2023-04-24T07:05:29;25.20;42.80
48043;DHT22;33988;47.992;8.820;2023-04-24T07:07:56;25.10;42.20
48043;DHT22;33988;47.992;8.820;2023-04-24T07:10:24;25.10;41.60
48043;DHT22;33988;47.992;8.820;2023-04-24T07:12:55;24.90;42.00
48043;DHT22;33988;47.992;8.820;2023-04-24T07:15:28;24.80;42.70
48043;DHT22;33988;47.992;8.820;2023-04-24T07:17:55;24.90;42.60
48043;DHT22;33988;47.992;8.820;2023-04-24T07:20:22;25.10;42.90
48043;DHT22;33988;47.992;8.820;2023-04-24T07:22:52;25.40;42.80
48043;DHT22;33988;47.992;8.820;2023-04-24T07:25:20;25.80;43.00
48043;DHT22;33988;47.992;8.820;2023-04-24T07:27:49;26.20;42.30
48043;DHT22;33988;47.992;8.820;2023-04-24T07:30:16;26.70;41.40
48043;DHT22;33988;47.992;8.820;2023-04-24T07:32:46;27.00;40.10
48043;DHT22;33988;47.992;8.820;2023-04-24T07:35:12;27.40;39.20
48043;DHT22;33988;47.992;8.820;2023-04-24T07:37:39;27.60;38.50
48043;DHT22;33988;47.992;8.820;2023-04-24T07:40:14;27.60;37.30
48043;DHT22;33988;47.992;8.820;2023-04-24T07:42:42;27.60;36.00
48043;DHT22;33988;47.992;8.820;2023-04-24T07:45:10;27.40;35.40
48043;DHT22;33988;47.992;8.820;2023-04-24T07:47:37;27.10;34.70
48043;DHT22;33988;47.992;8.820;2023-04-24T07:50:06;26.70;34.60
48043;DHT22;33988;47.992;8.820;2023-04-24T07:52:33;26.30;34.60
48043;DHT22;33988;47.992;8.820;2023-04-24T07:54:59;25.90;34.50
48043;DHT22;33988;47.992;8.820;2023-04-24T07:57:33;25.50;34.70
48043;DHT22;33988;47.992;8.820;2023-04-24T08:00:01;25.00;34.70
48043;DHT22;33988;47.992;8.820;2023-04-24T08:02:30;24.50;35.00
48043;DHT22;33988;47.992;8.820;2023-04-24T08:04:57;24.10;35.50
48043;DHT22;33988;47.992;8.820;2023-04-24T08:07:26;23.70;36.10
48043;DHT22;33988;47.992;8.820;2023-04-24T08:09:53;23.40;36.80
48043;DHT22;33988;47.992;8.820;2023-04-24T08:12:19;23.10;37.30
48043;DHT22;33988;47.992;8.820;2023-04-24T08:14:46;22.90;38.00
48043;DHT22;33988;47.992;8.820;2023-04-24T08:17:17;22.70;38.60
48043;DHT22;33988;47.992;8.820;2023-04-24T08:19:46;22.60;39.00
48043;DHT22;33988;47.992;8.820;2023-04-24T08:22:17;22.50;39.70
48043;DHT22;33988;47.992;8.820;2023-04-24T08:24:47;22.50;40.20
48043;DHT22;33988;47.992;8.820;2023-04-24T08:27:13;22.50;40.00
48043;DHT22;33988;47.992;8.820;2023-04-24T08:29:40;22.50;39.50
48043;DHT22;33988;47.992;8.820;2023-04-24T08:32:08;22.50;39.10
48043;DHT22;33988;47.992;8.820;2023-04-24T08:34:37;22.50;38.60
48043;DHT22;33988;47.992;8.820;2023-04-24T08:37:04;22.50;38.30
48043;DHT22;33988;47.992;8.820;2023-04-24T08:39:31;22.40;38.20
48043;DHT22;33988;47.992;8.820;2023-04-24T08:42:02;22.30;38.00
48043;DHT22;33988;47.992;8.820;2023-04-24T08:44:35;22.10;37.80
48043;DHT22;33988;47.992;8.820;2023-04-24T08:47:05;22.00;38.00
48043;DHT22;33988;47.992;8.820;2023-04-24T08:49:36;21.80;37.90
48043;DHT22;33988;47.992;8.820;2023-04-24T08:52:05;21.70;37.80
48043;DHT22;33988;47.992;8.820;2023-04-24T08:54:34;21.50;37.50
48043;DHT22;33988;47.992;8.820;2023-04-24T08:57:03;21.40;37.80
48043;DHT22;33988;47.992;8.820;2023-04-24T08:59:33;21.20;37.90
48043;DHT22;33988;47.992;8.820;2023-04-24T09:02:03;21.20;38.10
48043;DHT22;33988;47.992;8.820;2023-04-24T09:04:33;21.10;38.50
48043;DHT22;33988;47.992;8.820;2023-04-24T09:07:04;21.00;38.80
48043;DHT22;33988;47.992;8.820;2023-04-24T09:09:33;20.90;38.80
48043;DHT22;33988;47.992;8.820;2023-04-24T09:12:00;20.90;39.40
48043;DHT22;33988;47.992;8.820;2023-04-24T09:14:29;20.90;39.70
48043;DHT22;33988;47.992;8.820;2023-04-24T09:16:58;21.00;39.70
48043;DHT22;33988;47.992;8.820;2023-04-24T09:19:27;21.00;39.70
48043;DHT22;33988;47.992;8.820;2023-04-24T09:21:54;21.10;39.70
48043;DHT22;33988;47.992;8.820;2023-04-24T09:24:22;21.30;39.70
48043;DHT22;33988;47.992;8.820;2023-04-24T09:26:56;21.40;39.30
48043;DHT22;33988;47.992;8.820;2023-04-24T09:29:30;21.50;38.60
48043;DHT22;33988;47.992;8.820;2023-04-24T09:32:01;21.60;38.70
48043;DHT22;33988;47.992;8.820;2023-04-24T09:34:47;21.60;38.30
48043;DHT22;33988;47.992;8.820;2023-04-24T09:37:29;21.70;38.20
48043;DHT22;33988;47.992;8.820;2023-04-24T09:40:17;21.70;38.00
48043;DHT22;33988;47.992;8.820;2023-04-24T09:42:55;21.70;37.70
48043;DHT22;33988;47.992;8.820;2023-04-24T09:45:31;21.70;37.60
48043;DHT22;33988;47.992;8.820;2023-04-24T09:48:04;21.70;37.50
48043;DHT22;33988;47.992;8.820;2023-04-24T09:50:33;21.70;37.20
48043;DHT22;33988;47.992;8.820;2023-04-24T09:53:05;21.70;37.10
48043;DHT22;33988;47.992;8.820;2023-04-24T09:55:39;21.60;36.90
48043;DHT22;33988;47.992;8.820;2023-04-24T09:58:11;21.50;36.80
48043;DHT22;33988;47.992;8.820;2023-04-24T10:00:45;21.40;37.00
48043;DHT22;33988;47.992;8.820;2023-04-24T10:03:13;21.30;36.90
48043;DHT22;33988;47.992;8.820;2023-04-24T10:05:42;21.10;36.90
48043;DHT22;33988;47.992;8.820;2023-04-24T10:08:11;21.10;36.90
48043;DHT22;33988;47.992;8.820;2023-04-24T10:10:41;21.00;37.00
48043;DHT22;33988;47.992;8.820;2023-04-24T10:13:10;20.80;37.00
48043;DHT22;33988;47.992;8.820;2023-04-24T10:15:41;20.70;36.90
48043;DHT22;33988;47.992;8.820;2023-04-24T10:18:09;20.70;37.20
48043;DHT22;33988;47.992;8.820;2023-04-24T10:20:39;20.60;37.30
48043;DHT22;33988;47.992;8.820;2023-04-24T10:23:06;20.50;37.40
48043;DHT22;33988;47.992;8.820;2023-04-24T10:25:35;20.50;37.60
48043;DHT22;33988;47.992;8.820;2023-04-24T10:28:04;20.40;37.50
48043;DHT22;33988;47.992;8.820;2023-04-24T10:30:34;20.40;37.60
48043;DHT22;33988;47.992;8.820;2023-04-24T10:33:07;20.30;37.80
48043;DHT22;33988;47.992;8.820;2023-04-24T10:35:45;20.30;38.00
48043;DHT22;33988;47.992;8.820;2023-04-24T10:38:21;20.20;38.20
48043;DHT22;33988;47.992;8.820;2023-04-24T10:40:53;20.20;38.40
48043;DHT22;33988;47.992;8.820;2023-04-24T10:43:28;20.20;38.70
48043;DHT22;33988;47.992;8.820;2023-04-24T10:46:05;20.20;39.00
48043;DHT22;33988;47.992;8.820;2023-04-24T10:48:33;20.20;39.20
48043;DHT22;33988;47.992;8.820;2023-04-24T10:51:00;20.30;39.20
48043;DHT22;33988;47.992;8.820;2023-04-24T10:53:29;20.40;39.00
48043;DHT22;33988;47.992;8.820;2023-04-24T10:55:57;20.50;38.80
48043;DHT22;33988;47.992;8.820;2023-04-24T10:58:44;20.50;38.60
48043;DHT22;33988;47.992;8.820;2023-04-24T11:01:29;20.50;38.50
48043;DHT22;33988;47.992;8.820;2023-04-24T11:04:00;20.50;38.60
48043;DHT22;33988;47.992;8.820;2023-04-24T11:06:36;20.60;39.10
48043;DHT22;33988;47.992;8.820;2023-04-24T11:09:07;20.70;39.10
48043;DHT22;33988;47.992;8.820;2023-04-24T11:11:45;20.70;39.20
48043;DHT22;33988;47.992;8.820;2023-04-24T11:14:16;20.80;39.50
48043;DHT22;33988;47.992;8.820;2023-04-24T11:16:52;20.90;39.20
48043;DHT22;33988;47.992;8.820;2023-04-24T11:19:23;21.00;39.00
48043;DHT22;33988;47.992;8.820;2023-04-24T11:22:02;21.10;38.90
48043;DHT22;33988;47.992;8.820;2023-04-24T11:24:48;21.20;38.70
48043;DHT22;33988;47.992;8.820;2023-04-24T11:27:22;21.30;38.30
48043;DHT22;33988;47.992;8.820;2023-04-24T11:35:07;21.50;37.90
48043;DHT22;33988;47.992;8.820;2023-04-24T11:37:50;21.50;37.70
48043;DHT22;33988;47.992;8.820;2023-04-24T11:40:23;21.60;37.60
48043;DHT22;33988;47.992;8.820;2023-04-24T11:42:51;21.60;37.80
48043;DHT22;33988;47.992;8.820;2023-04-24T11:45:26;21.70;37.60
48043;DHT22;33988;47.992;8.820;2023-04-24T11:47:56;21.80;37.80
48043;DHT22;33988;47.992;8.820;2023-04-24T11:50:25;21.80;37.70
48043;DHT22;33988;47.992;8.820;2023-04-24T11:52:54;21.80;37.30
48043;DHT22;33988;47.992;8.820;2023-04-24T11:55:25;21.90;37.20
48043;DHT22;33988;47.992;8.820;2023-04-24T11:57:58;21.90;36.90
48043;DHT22;33988;47.992;8.820;2023-04-24T12:03:09;21.90;36.30
48043;DHT22;33988;47.992;8.820;2023-04-24T12:05:39;21.90;35.50
48043;DHT22;33988;47.992;8.820;2023-04-24T12:08:11;21.80;35.90
48043;DHT22;33988;47.992;8.820;2023-04-24T12:10:38;21.80;35.90
48043;DHT22;33988;47.992;8.820;2023-04-24T12:13:05;21.80;35.90
48043;DHT22;33988;47.992;8.820;2023-04-24T12:15:32;21.80;35.70
48043;DHT22;33988;47.992;8.820;2023-04-24T12:18:01;21.70;35.40
48043;DHT22;33988;47.992;8.820;2023-04-24T12:20:32;21.60;35.30
48043;DHT22;33988;47.992;8.820;2023-04-24T12:23:01;21.60;35.40
48043;DHT22;33988;47.992;8.820;2023-04-24T12:25:29;21.50;35.50
48043;DHT22;33988;47.992;8.820;2023-04-24T12:33:21;21.30;35.40
48043;DHT22;33988;47.992;8.820;2023-04-24T12:35:51;21.30;35.70
48043;DHT22;33988;47.992;8.820;2023-04-24T12:38:23;21.20;35.60
48043;DHT22;33988;47.992;8.820;2023-04-24T12:41:05;21.20;35.80
48043;DHT22;33988;47.992;8.820;2023-04-24T12:43:33;21.10;35.50
48043;DHT22;33988;47.992;8.820;2023-04-24T12:46:02;20.90;36.20
48043;DHT22;33988;47.992;8.820;2023-04-24T12:48:30;21.00;36.90
48043;DHT22;33988;47.992;8.820;2023-04-24T12:51:02;21.00;36.50
48043;DHT22;33988;47.992;8.820;2023-04-24T12:53:31;21.00;36.80
48043;DHT22;33988;47.992;8.820;2023-04-24T12:56:00;21.10;37.00
48043;DHT22;33988;47.992;8.820;2023-04-24T12:58:27;21.10;37.30
48043;DHT22;33988;47.992;8.820;2023-04-24T13:00:56;21.10;37.30
48043;DHT22;33988;47.992;8.820;2023-04-24T13:03:25;21.20;37.00
48043;DHT22;33988;47.992;8.820;2023-04-24T13:05:55;21.20;37.00
48043;DHT22;33988;47.992;8.820;2023-04-24T13:08:22;21.00;37.20
48043;DHT22;33988;47.992;8.820;2023-04-24T13:10:49;21.20;36.90
48043;DHT22;33988;47.992;8.820;2023-04-24T13:13:17;21.30;36.70
48043;DHT22;33988;47.992;8.820;2023-04-24T13:15:44;21.30;36.40
48043;DHT22;33988;47.992;8.820;2023-04-24T13:18:11;21.30;36.10
48043;DHT22;33988;47.992;8.820;2023-04-24T13:20:38;21.30;36.10
48043;DHT22;33988;47.992;8.820;2023-04-24T13:23:05;21.30;36.00
48043;DHT22;33988;47.992;8.820;2023-04-24T13:25:35;21.30;35.90
48043;DHT22;33988;47.992;8.820;2023-04-24T13:28:04;21.20;35.80
48043;DHT22;33988;47.992;8.820;2023-04-24T13:30:31;21.20;35.90
48043;DHT22;33988;47.992;8.820;2023-04-24T13:32:58;21.20;36.00
48043;DHT22;33988;47.992;8.820;2023-04-24T13:35:25;21.20;35.80
48043;DHT22;33988;47.992;8.820;2023-04-24T13:37:55;21.10;35.70
48043;DHT22;33988;47.992;8.820;2023-04-24T13:40:22;21.10;35.60
48043;DHT22;33988;47.992;8.820;2023-04-24T13:42:49;21.10;35.90
48043;DHT22;33988;47.992;8.820;2023-04-24T13:45:16;21.10;36.00
48043;DHT22;33988;47.992;8.820;2023-04-24T13:47:51;21.10;36.00
48043;DHT22;33988;47.992;8.820;2023-04-24T13:50:19;21.10;35.90
48043;DHT22;33988;47.992;8.820;2023-04-24T13:52:46;21.10;35.90
48043;DHT22;33988;47.992;8.820;2023-04-24T13:55:13;21.10;35.90
48043;DHT22;33988;47.992;8.820;2023-04-24T13:57:40;21.10;35.90
48043;DHT22;33988;47.992;8.820;2023-04-24T14:00:10;21.20;35.80
48043;DHT22;33988;47.992;8.820;2023-04-24T14:02:37;21.20;35.60
48043;DHT22;33988;47.992;8.820;2023-04-24T14:05:09;21.10;35.50
48043;DHT22;33988;47.992;8.820;2023-04-24T14:07:37;21.20;35.50
48043;DHT22;33988;47.992;8.820;2023-04-24T14:10:08;21.10;35.50
48043;DHT22;33988;47.992;8.820;2023-04-24T14:12:35;21.10;35.50
48043;DHT22;33988;47.992;8.820;2023-04-24T14:15:02;21.10;35.60
48043;DHT22;33988;47.992;8.820;2023-04-24T14:17:31;21.10;35.60
48043;DHT22;33988;47.992;8.820;2023-04-24T14:19:58;21.00;35.50
48043;DHT22;33988;47.992;8.820;2023-04-24T14:22:26;21.00;35.40
48043;DHT22;33988;47.992;8.820;2023-04-24T14:24:53;21.00;35.40
48043;DHT22;33988;47.992;8.820;2023-04-24T14:27:20;20.90;35.50
48043;DHT22;33988;47.992;8.820;2023-04-24T14:29:47;20.90;35.50
48043;DHT22;33988;47.992;8.820;2023-04-24T14:32:19;20.80;35.60
48043;DHT22;33988;47.992;8.820;2023-04-24T14:34:48;20.80;35.70
48043;DHT22;33988;47.992;8.820;2023-04-24T14:37:16;20.80;35.90
48043;DHT22;33988;47.992;8.820;2023-04-24T14:39:45;20.70;36.10
48043;DHT22;33988;47.992;8.820;2023-04-24T14:42:32;20.70;36.10
48043;DHT22;33988;47.992;8.820;2023-04-24T14:45:02;20.70;36.10
48043;DHT22;33988;47.992;8.820;2023-04-24T14:47:31;20.70;36.20
48043;DHT22;33988;47.992;8.820;2023-04-24T14:50:00;20.70;36.70
48043;DHT22;33988;47.992;8.820;2023-04-24T14:52:32;20.70;36.40
48043;DHT22;33988;47.992;8.820;2023-04-24T14:54:59;20.40;36.60
48043;DHT22;33988;47.992;8.820;2023-04-24T14:57:26;20.60;36.50
48043;DHT22;33988;47.992;8.820;2023-04-24T14:59:53;20.60;36.50
48043;DHT22;33988;47.992;8.820;2023-04-24T15:02:20;20.60;36.40
48043;DHT22;33988;47.992;8.820;2023-04-24T15:04:48;20.60;36.30
48043;DHT22;33988;47.992;8.820;2023-04-24T15:07:15;20.60;36.30
48043;DHT22;33988;47.992;8.820;2023-04-24T15:09:42;20.50;36.20
48043;DHT22;33988;47.992;8.820;2023-04-24T15:12:11;20.50;36.20
48043;DHT22;33988;47.992;8.820;2023-04-24T15:14:38;20.50;36.30
48043;DHT22;33988;47.992;8.820;2023-04-24T15:17:08;20.50;36.40
48043;DHT22;33988;47.992;8.820;2023-04-24T15:19:35;20.50;36.30
48043;DHT22;33988;47.992;8.820;2023-04-24T15:22:04;20.40;36.10
48043;DHT22;33988;47.992;8.820;2023-04-24T15:24:33;20.40;36.00
48043;DHT22;33988;47.992;8.820;2023-04-24T15:27:00;20.30;36.20
48043;DHT22;33988;47.992;8.820;2023-04-24T15:29:28;20.30;36.30
48043;DHT22;33988;47.992;8.820;2023-04-24T15:31:56;20.30;36.40
48043;DHT22;33988;47.992;8.820;2023-04-24T15:34:22;20.20;36.40
48043;DHT22;33988;47.992;8.820;2023-04-24T15:36:49;20.20;36.50
48043;DHT22;33988;47.992;8.820;2023-04-24T15:39:22;20.20;36.50
48043;DHT22;33988;47.992;8.820;2023-04-24T15:41:50;20.10;36.20
48043;DHT22;33988;47.992;8.820;2023-04-24T15:44:21;20.10;36.40
48043;DHT22;33988;47.992;8.820;2023-04-24T15:46:48;20.00;36.50
48043;DHT22;33988;47.992;8.820;2023-04-24T15:49:15;20.00;36.60
48043;DHT22;33988;47.992;8.820;2023-04-24T15:51:45;19.90;36.60
48043;DHT22;33988;47.992;8.820;2023-04-24T15:54:12;19.90;36.80